N17X KBED-KBOS
Flight info
| Callsign | N17X |
|---|---|
| Flight time | N/A |
| Altitude | VFR/025 |
| Route | |
| Aircraft | AS50/L-DOV/C |
Departure
| Time | 2026-04-25 13:40 |
|---|---|
| Airport | Laurence G Hanscom Field (KBED) |
Arrival
| Time | N/A |
|---|---|
| Airport | Boston Logan International Airport (KBOS) |
| Time | Latitude | Longitude | Altitude | Speed | Heading |
|---|---|---|---|---|---|
| 2026-04-25 13:34 | 42.46374 | -71.29005 | 131 ft | 0 kts | 284° |
| 2026-04-25 13:39 | 42.46372 | -71.29009 | 141 ft | 2 kts | 293° |
| 2026-04-25 13:39 | 42.46375 | -71.29051 | 162 ft | 5 kts | 169° |
| 2026-04-25 13:39 | 42.46382 | -71.29043 | 176 ft | 11 kts | 97° |
| 2026-04-25 13:39 | 42.46370 | -71.28895 | 314 ft | 32 kts | 94° |
| 2026-04-25 13:40 | 42.46406 | -71.28328 | 642 ft | 59 kts | 69° |
| 2026-04-25 13:40 | 42.46553 | -71.27979 | 762 ft | 71 kts | 54° |
| 2026-04-25 13:40 | 42.46964 | -71.27499 | 962 ft | 89 kts | 32° |
| 2026-04-25 13:40 | 42.47553 | -71.27036 | 982 ft | 106 kts | 46° |
| 2026-04-25 13:41 | 42.47769 | -71.26053 | 1013 ft | 118 kts | 91° |
| 2026-04-25 13:41 | 42.47701 | -71.24971 | 1128 ft | 115 kts | 90° |
| 2026-04-25 13:41 | 42.47808 | -71.23912 | 1223 ft | 113 kts | 73° |
| 2026-04-25 13:41 | 42.47966 | -71.22867 | 1296 ft | 114 kts | 81° |
| 2026-04-25 13:42 | 42.48001 | -71.21774 | 1274 ft | 119 kts | 87° |
| 2026-04-25 13:42 | 42.48076 | -71.20616 | 1156 ft | 126 kts | 73° |
| 2026-04-25 13:42 | 42.48459 | -71.19548 | 1029 ft | 120 kts | 55° |
| 2026-04-25 13:42 | 42.48932 | -71.18735 | 1076 ft | 103 kts | 49° |
| 2026-04-25 13:43 | 42.49358 | -71.18024 | 1082 ft | 92 kts | 58° |
| 2026-04-25 13:43 | 42.49614 | -71.17240 | 1082 ft | 91 kts | 71° |
| 2026-04-25 13:43 | 42.49780 | -71.16386 | 1007 ft | 94 kts | 76° |
| 2026-04-25 13:43 | 42.49911 | -71.15533 | 1016 ft | 92 kts | 75° |
| 2026-04-25 13:44 | 42.50061 | -71.14711 | 1013 ft | 88 kts | 74° |
| 2026-04-25 13:44 | 42.50205 | -71.13911 | 1011 ft | 86 kts | 77° |
| 2026-04-25 13:44 | 42.50201 | -71.13099 | 1009 ft | 90 kts | 111° |
| 2026-04-25 13:44 | 42.49728 | -71.12542 | 1012 ft | 94 kts | 152° |
| 2026-04-25 13:45 | 42.49117 | -71.12212 | 1005 ft | 94 kts | 158° |
| 2026-04-25 13:45 | 42.48515 | -71.11880 | 1006 ft | 93 kts | 152° |
| 2026-04-25 13:45 | 42.47939 | -71.11459 | 1004 ft | 96 kts | 149° |
| 2026-04-25 13:45 | 42.47328 | -71.11063 | 1001 ft | 99 kts | 154° |
| 2026-04-25 13:46 | 42.46693 | -71.10676 | 1001 ft | 101 kts | 153° |
| 2026-04-25 13:46 | 42.46038 | -71.10366 | 994 ft | 99 kts | 168° |
| 2026-04-25 13:46 | 42.45361 | -71.10368 | 1006 ft | 98 kts | 189° |
| 2026-04-25 13:46 | 42.44685 | -71.10561 | 999 ft | 100 kts | 187° |
| 2026-04-25 13:47 | 42.44008 | -71.10424 | 997 ft | 99 kts | 161° |
| 2026-04-25 13:47 | 42.43327 | -71.10277 | 1000 ft | 100 kts | 178° |
| 2026-04-25 13:47 | 42.42638 | -71.10356 | 998 ft | 99 kts | 189° |
| 2026-04-25 13:47 | 42.41970 | -71.10501 | 996 ft | 96 kts | 185° |
| 2026-04-25 13:48 | 42.41315 | -71.10449 | 999 ft | 94 kts | 166° |
| 2026-04-25 13:48 | 42.40704 | -71.10142 | 1001 ft | 94 kts | 153° |
| 2026-04-25 13:48 | 42.40141 | -71.09716 | 967 ft | 96 kts | 142° |
| 2026-04-25 13:48 | 42.39631 | -71.09095 | 870 ft | 101 kts | 131° |
| 2026-04-25 13:49 | 42.39149 | -71.08424 | 840 ft | 97 kts | 135° |
| 2026-04-25 13:49 | 42.38597 | -71.07934 | 838 ft | 92 kts | 157° |
| 2026-04-25 13:49 | 42.37992 | -71.07707 | 834 ft | 88 kts | 159° |
| 2026-04-25 13:49 | 42.37484 | -71.07302 | 835 ft | 83 kts | 138° |
| 2026-04-25 13:50 | 42.37199 | -71.06667 | 836 ft | 78 kts | 95° |
| 2026-04-25 13:50 | 42.37349 | -71.05998 | 843 ft | 74 kts | 60° |
| 2026-04-25 13:50 | 42.37659 | -71.05435 | 840 ft | 76 kts | 42° |
| 2026-04-25 13:50 | 42.38102 | -71.05010 | 805 ft | 80 kts | 35° |
| 2026-04-25 13:51 | 42.38585 | -71.04565 | 751 ft | 87 kts | 35° |
| 2026-04-25 13:51 | 42.39098 | -71.04089 | 705 ft | 92 kts | 33° |
| 2026-04-25 13:51 | 42.39680 | -71.03774 | 716 ft | 89 kts | 16° |
| 2026-04-25 13:51 | 42.40214 | -71.03357 | 696 ft | 90 kts | 47° |
| 2026-04-25 13:52 | 42.40620 | -71.02682 | 649 ft | 94 kts | 31° |
| 2026-04-25 13:52 | 42.41236 | -71.02695 | 648 ft | 89 kts | 339° |
| 2026-04-25 13:52 | 42.41787 | -71.02834 | 787 ft | 78 kts | 8° |
| 2026-04-25 13:52 | 42.42306 | -71.02547 | 872 ft | 88 kts | 31° |
| 2026-04-25 13:53 | 42.42824 | -71.01995 | 841 ft | 102 kts | 33° |
| 2026-04-25 13:53 | 42.43503 | -71.01976 | 908 ft | 102 kts | 336° |
| 2026-04-25 13:53 | 42.44038 | -71.02572 | 1043 ft | 99 kts | 330° |
| 2026-04-25 13:53 | 42.44724 | -71.02633 | 1016 ft | 105 kts | 17° |
| 2026-04-25 13:54 | 42.45447 | -71.02369 | 1008 ft | 109 kts | 9° |
| 2026-04-25 13:54 | 42.46218 | -71.02390 | 1009 ft | 113 kts | 354° |
| 2026-04-25 13:54 | 42.46999 | -71.02446 | 1005 ft | 112 kts | 5° |
| 2026-04-25 13:54 | 42.47758 | -71.02229 | 1010 ft | 112 kts | 19° |
| 2026-04-25 13:55 | 42.48499 | -71.01870 | 1012 ft | 114 kts | 20° |
| 2026-04-25 13:55 | 42.49277 | -71.01630 | 1009 ft | 115 kts | 8° |
| 2026-04-25 13:55 | 42.50077 | -71.01508 | 1004 ft | 116 kts | 8° |
| 2026-04-25 13:55 | 42.50831 | -71.01180 | 1001 ft | 114 kts | 35° |
| 2026-04-25 13:56 | 42.51267 | -71.00309 | 1006 ft | 114 kts | 71° |
| 2026-04-25 13:56 | 42.51353 | -70.99282 | 1077 ft | 107 kts | 87° |
| 2026-04-25 13:56 | 42.51304 | -70.98307 | 1189 ft | 102 kts | 95° |
| 2026-04-25 13:56 | 42.51155 | -70.97324 | 1205 ft | 110 kts | 100° |
| 2026-04-25 13:57 | 42.50931 | -70.96336 | 1201 ft | 110 kts | 109° |
| 2026-04-25 13:57 | 42.50731 | -70.95701 | 1203 ft | 112 kts | 110° |
| 2026-04-25 13:57 | 42.50275 | -70.94406 | 1199 ft | 115 kts | 112° |
| 2026-04-25 13:57 | 42.50017 | -70.93400 | 1198 ft | 112 kts | 101° |
| 2026-04-25 13:58 | 42.49901 | -70.92361 | 1202 ft | 112 kts | 89° |
| 2026-04-25 13:58 | 42.49939 | -70.91312 | 1175 ft | 108 kts | 82° |
| 2026-04-25 13:58 | 42.50063 | -70.90392 | 1200 ft | 96 kts | 73° |
| 2026-04-25 13:58 | 42.50190 | -70.89525 | 1206 ft | 91 kts | 78° |
| 2026-04-25 13:59 | 42.50263 | -70.88669 | 1205 ft | 94 kts | 90° |
| 2026-04-25 13:59 | 42.50054 | -70.87854 | 1201 ft | 91 kts | 121° |
| 2026-04-25 13:59 | 42.49641 | -70.87208 | 1214 ft | 94 kts | 133° |
| 2026-04-25 13:59 | 42.49151 | -70.86543 | 1203 ft | 101 kts | 133° |
| 2026-04-25 14:00 | 42.48694 | -70.85820 | 1194 ft | 102 kts | 125° |
| 2026-04-25 14:00 | 42.48277 | -70.85049 | 1196 ft | 100 kts | 121° |
| 2026-04-25 14:00 | 42.48042 | -70.84204 | 1181 ft | 94 kts | 82° |
| 2026-04-25 14:00 | 42.48361 | -70.83521 | 1200 ft | 85 kts | 36° |
| 2026-04-25 14:01 | 42.48893 | -70.83156 | 1201 ft | 86 kts | 18° |
| 2026-04-25 14:01 | 42.49483 | -70.83046 | 1194 ft | 85 kts | 6° |
| 2026-04-25 14:01 | 42.50076 | -70.83001 | 1190 ft | 85 kts | 359° |
| 2026-04-25 14:01 | 42.50625 | -70.83283 | 1194 ft | 87 kts | 329° |
| 2026-04-25 14:02 | 42.51036 | -70.83884 | 1183 ft | 92 kts | 295° |
| 2026-04-25 14:02 | 42.50879 | -70.84704 | 1192 ft | 98 kts | 230° |
| 2026-04-25 14:02 | 42.50247 | -70.84933 | 1198 ft | 100 kts | 166° |
| 2026-04-25 14:02 | 42.50033 | -70.84803 | 1190 ft | 99 kts | 146° |
| 2026-04-25 14:03 | 42.49953 | -70.83584 | 1196 ft | 84 kts | 40° |
| 2026-04-25 14:03 | 42.50502 | -70.83481 | 1196 ft | 84 kts | 346° |
| 2026-04-25 14:03 | 42.50919 | -70.84030 | 1194 ft | 89 kts | 299° |
| 2026-04-25 14:03 | 42.50939 | -70.84879 | 1193 ft | 95 kts | 259° |
| 2026-04-25 14:04 | 42.50689 | -70.85729 | 1197 ft | 100 kts | 251° |
| 2026-04-25 14:04 | 42.50416 | -70.86593 | 1193 ft | 98 kts | 257° |
| 2026-04-25 14:04 | 42.50393 | -70.87483 | 1184 ft | 92 kts | 292° |
| 2026-04-25 14:04 | 42.50821 | -70.88026 | 1190 ft | 85 kts | 345° |
| 2026-04-25 14:05 | 42.51409 | -70.88084 | 1184 ft | 84 kts | 11° |
| 2026-04-25 14:05 | 42.51963 | -70.87828 | 1192 ft | 85 kts | 23° |
| 2026-04-25 14:05 | 42.52487 | -70.87456 | 1197 ft | 86 kts | 34° |
| 2026-04-25 14:05 | 42.52956 | -70.86937 | 1191 ft | 88 kts | 44° |
| 2026-04-25 14:06 | 42.53374 | -70.86327 | 1189 ft | 89 kts | 47° |
| 2026-04-25 14:06 | 42.53780 | -70.85714 | 1193 ft | 89 kts | 46° |
| 2026-04-25 14:06 | 42.54196 | -70.85095 | 1190 ft | 89 kts | 46° |
| 2026-04-25 14:06 | 42.54594 | -70.84397 | 1195 ft | 103 kts | 56° |
| 2026-04-25 14:07 | 42.54829 | -70.83432 | 1189 ft | 112 kts | 73° |
| 2026-04-25 14:07 | 42.55006 | -70.82383 | 1189 ft | 116 kts | 75° |
| 2026-04-25 14:07 | 42.55184 | -70.81299 | 1189 ft | 118 kts | 73° |
| 2026-04-25 14:07 | 42.55379 | -70.80217 | 1189 ft | 118 kts | 72° |
| 2026-04-25 14:08 | 42.55586 | -70.79138 | 1191 ft | 118 kts | 71° |
| 2026-04-25 14:08 | 42.55798 | -70.78057 | 1189 ft | 119 kts | 72° |
| 2026-04-25 14:08 | 42.56018 | -70.76976 | 1193 ft | 119 kts | 71° |
| 2026-04-25 14:08 | 42.56243 | -70.75896 | 1190 ft | 119 kts | 71° |
| 2026-04-25 14:09 | 42.56473 | -70.74811 | 1189 ft | 120 kts | 70° |
| 2026-04-25 14:09 | 42.56702 | -70.73728 | 1188 ft | 119 kts | 70° |
| 2026-04-25 14:09 | 42.56929 | -70.72649 | 1191 ft | 119 kts | 71° |
| 2026-04-25 14:09 | 42.57007 | -70.72284 | 1189 ft | 119 kts | 71° |
| 2026-04-25 14:10 | 42.57398 | -70.70489 | 1186 ft | 120 kts | 69° |
| 2026-04-25 14:10 | 42.57628 | -70.69405 | 1188 ft | 119 kts | 70° |
| 2026-04-25 14:10 | 42.57854 | -70.68322 | 1190 ft | 119 kts | 70° |
| 2026-04-25 14:10 | 42.58080 | -70.67237 | 1190 ft | 120 kts | 69° |
| 2026-04-25 14:11 | 42.58414 | -70.66218 | 1190 ft | 118 kts | 56° |
| 2026-04-25 14:11 | 42.58937 | -70.65372 | 1188 ft | 116 kts | 42° |
| 2026-04-25 14:11 | 42.59541 | -70.64640 | 1193 ft | 117 kts | 39° |
| 2026-04-25 14:11 | 42.60167 | -70.63931 | 1190 ft | 118 kts | 38° |
| 2026-04-25 14:12 | 42.60806 | -70.63215 | 1191 ft | 121 kts | 37° |
| 2026-04-25 14:12 | 42.61443 | -70.62494 | 1183 ft | 120 kts | 37° |
| 2026-04-25 14:12 | 42.62129 | -70.61851 | 1187 ft | 117 kts | 31° |
| 2026-04-25 14:12 | 42.62798 | -70.61245 | 1190 ft | 115 kts | 33° |
| 2026-04-25 14:13 | 42.63449 | -70.60622 | 1188 ft | 117 kts | 34° |
| 2026-04-25 14:13 | 42.64118 | -70.59968 | 1189 ft | 120 kts | 34° |
| 2026-04-25 14:13 | 42.64824 | -70.59348 | 1186 ft | 123 kts | 21° |
| 2026-04-25 14:13 | 42.65658 | -70.59274 | 1183 ft | 120 kts | 349° |
| 2026-04-25 14:14 | 42.66435 | -70.59660 | 1186 ft | 118 kts | 336° |
| 2026-04-25 14:14 | 42.67089 | -70.60322 | 1184 ft | 120 kts | 309° |
| 2026-04-25 14:14 | 42.67403 | -70.61363 | 1184 ft | 121 kts | 279° |
| 2026-04-25 14:14 | 42.67340 | -70.62516 | 1191 ft | 125 kts | 263° |
| 2026-04-25 14:15 | 42.67177 | -70.63686 | 1186 ft | 127 kts | 265° |
| 2026-04-25 14:15 | 42.67129 | -70.64087 | 1186 ft | 127 kts | 264° |
| 2026-04-25 14:15 | 42.67486 | -70.65899 | 1183 ft | 117 kts | 310° |
| 2026-04-25 14:15 | 42.68168 | -70.66413 | 1191 ft | 113 kts | 351° |
| 2026-04-25 14:16 | 42.68938 | -70.66403 | 1188 ft | 111 kts | 10° |
| 2026-04-25 14:16 | 42.69565 | -70.65851 | 1186 ft | 112 kts | 55° |
| 2026-04-25 14:16 | 42.69660 | -70.64811 | 1188 ft | 117 kts | 102° |
| 2026-04-25 14:16 | 42.69143 | -70.63958 | 1188 ft | 121 kts | 146° |
| 2026-04-25 14:17 | 42.68357 | -70.63507 | 1187 ft | 123 kts | 163° |
| 2026-04-25 14:17 | 42.67515 | -70.63448 | 1188 ft | 123 kts | 196° |
| 2026-04-25 14:17 | 42.66869 | -70.64176 | 1190 ft | 123 kts | 240° |
| 2026-04-25 14:17 | 42.66548 | -70.65243 | 1187 ft | 122 kts | 255° |
| 2026-04-25 14:18 | 42.66370 | -70.66366 | 1187 ft | 121 kts | 266° |
| 2026-04-25 14:18 | 42.66275 | -70.67504 | 1188 ft | 121 kts | 269° |
| 2026-04-25 14:18 | 42.66208 | -70.68641 | 1186 ft | 122 kts | 268° |
| 2026-04-25 14:18 | 42.66170 | -70.69786 | 1186 ft | 120 kts | 271° |
| 2026-04-25 14:19 | 42.66121 | -70.70921 | 1188 ft | 120 kts | 270° |
| 2026-04-25 14:19 | 42.66068 | -70.72066 | 1189 ft | 122 kts | 278° |
| 2026-04-25 14:19 | 42.66430 | -70.73047 | 1196 ft | 119 kts | 318° |
| 2026-04-25 14:19 | 42.67100 | -70.73721 | 1180 ft | 119 kts | 330° |
| 2026-04-25 14:20 | 42.67812 | -70.74275 | 1199 ft | 118 kts | 334° |
| 2026-04-25 14:20 | 42.68059 | -70.74454 | 1198 ft | 120 kts | 335° |
| 2026-04-25 14:20 | 42.69255 | -70.75352 | 1191 ft | 115 kts | 333° |
| 2026-04-25 14:20 | 42.69948 | -70.75898 | 1191 ft | 115 kts | 332° |
| 2026-04-25 14:21 | 42.70626 | -70.76472 | 1187 ft | 114 kts | 330° |
| 2026-04-25 14:21 | 42.71295 | -70.77064 | 1188 ft | 115 kts | 329° |
| 2026-04-25 14:21 | 42.71957 | -70.77664 | 1189 ft | 114 kts | 329° |
| 2026-04-25 14:21 | 42.72623 | -70.78283 | 1191 ft | 119 kts | 328° |
| 2026-04-25 14:22 | 42.73362 | -70.78788 | 1190 ft | 120 kts | 346° |
| 2026-04-25 14:22 | 42.74181 | -70.78980 | 1188 ft | 119 kts | 354° |
| 2026-04-25 14:22 | 42.74995 | -70.79091 | 1171 ft | 116 kts | 356° |
| 2026-04-25 14:22 | 42.75789 | -70.79179 | 1186 ft | 114 kts | 356° |
| 2026-04-25 14:23 | 42.76550 | -70.79389 | 1192 ft | 113 kts | 345° |
| 2026-04-25 14:23 | 42.77309 | -70.79728 | 1186 ft | 113 kts | 343° |
| 2026-04-25 14:23 | 42.78064 | -70.80068 | 1187 ft | 114 kts | 345° |
| 2026-04-25 14:23 | 42.78811 | -70.80375 | 1180 ft | 113 kts | 346° |
| 2026-04-25 14:24 | 42.79548 | -70.80636 | 1194 ft | 106 kts | 349° |
| 2026-04-25 14:24 | 42.80260 | -70.80865 | 1188 ft | 104 kts | 350° |
| 2026-04-25 14:24 | 42.80956 | -70.81086 | 1187 ft | 102 kts | 349° |
| 2026-04-25 14:24 | 42.81650 | -70.81316 | 1189 ft | 103 kts | 349° |
| 2026-04-25 14:25 | 42.82327 | -70.81238 | 1187 ft | 100 kts | 32° |
| 2026-04-25 14:25 | 42.82633 | -70.80435 | 1187 ft | 101 kts | 87° |
| 2026-04-25 14:25 | 42.82465 | -70.79838 | 1188 ft | 102 kts | 128° |
| 2026-04-25 14:25 | 42.82072 | -70.79494 | 1190 ft | 103 kts | 161° |
| 2026-04-25 14:26 | 42.81125 | -70.79217 | 1192 ft | 104 kts | 167° |
| 2026-04-25 14:26 | 42.80414 | -70.78998 | 1186 ft | 105 kts | 165° |
| 2026-04-25 14:26 | 42.79695 | -70.78768 | 1186 ft | 107 kts | 165° |
| 2026-04-25 14:26 | 42.78975 | -70.78763 | 1189 ft | 108 kts | 204° |
| 2026-04-25 14:27 | 42.78536 | -70.79511 | 1168 ft | 95 kts | 274° |
| 2026-04-25 14:27 | 42.78764 | -70.80186 | 1193 ft | 75 kts | 338° |
| 2026-04-25 14:27 | 42.79232 | -70.80470 | 1187 ft | 74 kts | 348° |
| 2026-04-25 14:27 | 42.79738 | -70.80649 | 1187 ft | 76 kts | 352° |
| 2026-04-25 14:28 | 42.80256 | -70.80816 | 1189 ft | 77 kts | 352° |
| 2026-04-25 14:28 | 42.80780 | -70.80989 | 1185 ft | 77 kts | 351° |
| 2026-04-25 14:28 | 42.81311 | -70.81171 | 1187 ft | 80 kts | 349° |
| 2026-04-25 14:28 | 42.81851 | -70.81360 | 1187 ft | 80 kts | 349° |
| 2026-04-25 14:29 | 42.82379 | -70.81548 | 1195 ft | 79 kts | 349° |
| 2026-04-25 14:29 | 42.82919 | -70.81739 | 1194 ft | 82 kts | 351° |
| 2026-04-25 14:29 | 42.83478 | -70.81937 | 1182 ft | 82 kts | 349° |
| 2026-04-25 14:29 | 42.84004 | -70.81960 | 1191 ft | 76 kts | 18° |
| 2026-04-25 14:30 | 42.84533 | -70.82016 | 1193 ft | 85 kts | 329° |
| 2026-04-25 14:30 | 42.84300 | -70.83336 | 1189 ft | 87 kts | 202° |
| 2026-04-25 14:30 | 42.83723 | -70.83359 | 1189 ft | 82 kts | 160° |
| 2026-04-25 14:31 | 42.83238 | -70.82997 | 1199 ft | 80 kts | 145° |
| 2026-04-25 14:31 | 42.82772 | -70.82578 | 1196 ft | 79 kts | 148° |
| 2026-04-25 14:31 | 42.82300 | -70.82189 | 1196 ft | 83 kts | 149° |
| 2026-04-25 14:31 | 42.81797 | -70.81781 | 1188 ft | 84 kts | 148° |
| 2026-04-25 14:32 | 42.81289 | -70.81365 | 1186 ft | 86 kts | 148° |
| 2026-04-25 14:32 | 42.80751 | -70.80951 | 1190 ft | 91 kts | 149° |
| 2026-04-25 14:32 | 42.80204 | -70.80536 | 1183 ft | 88 kts | 146° |
| 2026-04-25 14:32 | 42.79618 | -70.80405 | 1190 ft | 89 kts | 195° |
| 2026-04-25 14:33 | 42.79169 | -70.80941 | 1190 ft | 88 kts | 248° |
| 2026-04-25 14:33 | 42.79004 | -70.81749 | 1186 ft | 89 kts | 265° |
| 2026-04-25 14:33 | 42.78916 | -70.82581 | 1186 ft | 89 kts | 266° |
| 2026-04-25 14:33 | 42.78834 | -70.83417 | 1190 ft | 90 kts | 267° |
| 2026-04-25 14:34 | 42.78742 | -70.84249 | 1189 ft | 88 kts | 266° |
| 2026-04-25 14:34 | 42.78769 | -70.85045 | 1190 ft | 86 kts | 275° |
| 2026-04-25 14:34 | 42.78586 | -70.85853 | 1180 ft | 91 kts | 249° |
| 2026-04-25 14:34 | 42.78270 | -70.86558 | 1196 ft | 84 kts | 242° |
| 2026-04-25 14:35 | 42.77928 | -70.87234 | 1197 ft | 90 kts | 237° |
| 2026-04-25 14:35 | 42.77549 | -70.87920 | 1176 ft | 89 kts | 237° |
| 2026-04-25 14:35 | 42.77187 | -70.88572 | 1199 ft | 85 kts | 239° |
| 2026-04-25 14:35 | 42.76843 | -70.89215 | 1198 ft | 84 kts | 238° |
| 2026-04-25 14:36 | 42.76494 | -70.89885 | 1256 ft | 98 kts | 236° |
| 2026-04-25 14:36 | 42.76060 | -70.90745 | 1204 ft | 117 kts | 237° |
| 2026-04-25 14:36 | 42.75593 | -70.91705 | 1202 ft | 127 kts | 238° |
| 2026-04-25 14:36 | 42.75112 | -70.92721 | 1194 ft | 128 kts | 238° |
| 2026-04-25 14:37 | 42.74643 | -70.93738 | 1198 ft | 126 kts | 239° |
| 2026-04-25 14:37 | 42.74178 | -70.94761 | 1197 ft | 127 kts | 240° |
| 2026-04-25 14:37 | 42.73681 | -70.95693 | 1165 ft | 115 kts | 226° |
| 2026-04-25 14:37 | 42.73064 | -70.96331 | 1186 ft | 108 kts | 212° |
| 2026-04-25 14:38 | 42.72366 | -70.96381 | 1194 ft | 99 kts | 153° |
| 2026-04-25 14:38 | 42.72031 | -70.95678 | 1199 ft | 88 kts | 88° |
| 2026-04-25 14:38 | 42.72321 | -70.95017 | 1201 ft | 85 kts | 38° |
| 2026-04-25 14:38 | 42.72851 | -70.94619 | 1202 ft | 87 kts | 27° |
| 2026-04-25 14:39 | 42.73411 | -70.94330 | 1198 ft | 88 kts | 20° |
| 2026-04-25 14:39 | 42.73978 | -70.94017 | 1195 ft | 88 kts | 20° |
| 2026-04-25 14:39 | 42.74494 | -70.93594 | 1198 ft | 87 kts | 40° |
| 2026-04-25 14:39 | 42.74927 | -70.93041 | 1199 ft | 85 kts | 45° |
| 2026-04-25 14:40 | 42.75340 | -70.92475 | 1196 ft | 84 kts | 46° |
| 2026-04-25 14:40 | 42.75760 | -70.91904 | 1201 ft | 87 kts | 46° |
| 2026-04-25 14:40 | 42.76193 | -70.91326 | 1193 ft | 87 kts | 45° |
| 2026-04-25 14:40 | 42.76623 | -70.90762 | 1195 ft | 85 kts | 45° |
| 2026-04-25 14:41 | 42.77052 | -70.90204 | 1197 ft | 85 kts | 44° |
| 2026-04-25 14:41 | 42.77485 | -70.89658 | 1196 ft | 85 kts | 43° |
| 2026-04-25 14:41 | 42.77821 | -70.89020 | 1197 ft | 86 kts | 81° |
| 2026-04-25 14:41 | 42.77548 | -70.88332 | 1197 ft | 90 kts | 147° |
| 2026-04-25 14:42 | 42.76929 | -70.88374 | 1206 ft | 95 kts | 206° |
| 2026-04-25 14:42 | 42.76549 | -70.88696 | 1195 ft | 98 kts | 218° |
| 2026-04-25 14:42 | 42.76054 | -70.89689 | 1183 ft | 98 kts | 276° |
| 2026-04-25 14:42 | 42.76372 | -70.90336 | 1196 ft | 74 kts | 348° |
| 2026-04-25 14:43 | 42.76883 | -70.90210 | 1202 ft | 83 kts | 32° |
| 2026-04-25 14:43 | 42.77333 | -70.89757 | 1193 ft | 78 kts | 43° |
| 2026-04-25 14:43 | 42.77727 | -70.89278 | 1195 ft | 75 kts | 45° |
| 2026-04-25 14:43 | 42.78097 | -70.88800 | 1198 ft | 72 kts | 45° |
| 2026-04-25 14:44 | 42.78366 | -70.88258 | 1194 ft | 71 kts | 90° |
| 2026-04-25 14:44 | 42.78036 | -70.87759 | 1194 ft | 80 kts | 167° |
| 2026-04-25 14:44 | 42.77510 | -70.88010 | 1197 ft | 84 kts | 218° |
| 2026-04-25 14:44 | 42.77063 | -70.88504 | 1193 ft | 82 kts | 224° |
| 2026-04-25 14:45 | 42.76638 | -70.89016 | 1198 ft | 82 kts | 224° |
| 2026-04-25 14:45 | 42.76207 | -70.89528 | 1199 ft | 83 kts | 224° |
| 2026-04-25 14:45 | 42.75753 | -70.90064 | 1200 ft | 90 kts | 223° |
| 2026-04-25 14:45 | 42.75277 | -70.90621 | 1192 ft | 91 kts | 223° |
| 2026-04-25 14:46 | 42.74823 | -70.91199 | 1189 ft | 88 kts | 242° |
| 2026-04-25 14:46 | 42.74873 | -70.91937 | 1197 ft | 80 kts | 317° |
| 2026-04-25 14:46 | 42.75358 | -70.92047 | 1198 ft | 74 kts | 28° |
| 2026-04-25 14:46 | 42.75778 | -70.91633 | 1199 ft | 77 kts | 42° |
| 2026-04-25 14:47 | 42.76195 | -70.91151 | 1191 ft | 78 kts | 41° |
| 2026-04-25 14:47 | 42.76471 | -70.90831 | 1197 ft | 75 kts | 42° |
| 2026-04-25 14:47 | 42.76998 | -70.90188 | 1191 ft | 79 kts | 51° |
| 2026-04-25 14:47 | 42.77044 | -70.89478 | 1195 ft | 76 kts | 89° |
| 2026-04-25 14:48 | 42.77331 | -70.88935 | 1209 ft | 74 kts | 37° |
| 2026-04-25 14:48 | 42.77791 | -70.88551 | 1187 ft | 78 kts | 26° |
| 2026-04-25 14:48 | 42.78280 | -70.88729 | 1193 ft | 81 kts | 317° |
| 2026-04-25 14:48 | 42.78302 | -70.89465 | 1199 ft | 85 kts | 246° |
| 2026-04-25 14:49 | 42.77837 | -70.89935 | 1199 ft | 84 kts | 204° |
| 2026-04-25 14:49 | 42.77334 | -70.90184 | 1191 ft | 69 kts | 218° |
| 2026-04-25 14:49 | 42.77217 | -70.90601 | 1302 ft | 36 kts | 301° |
| 2026-04-25 14:49 | 42.77460 | -70.90566 | 1710 ft | 52 kts | 20° |
| 2026-04-25 14:50 | 42.77843 | -70.90398 | 1790 ft | 68 kts | 33° |
| 2026-04-25 14:50 | 42.77990 | -70.89661 | 1589 ft | 99 kts | 107° |
| 2026-04-25 14:50 | 42.77493 | -70.88979 | 1485 ft | 108 kts | 154° |
| 2026-04-25 14:50 | 42.76748 | -70.88828 | 1481 ft | 108 kts | 182° |
| 2026-04-25 14:51 | 42.76104 | -70.89228 | 1507 ft | 104 kts | 227° |
| 2026-04-25 14:51 | 42.75822 | -70.90100 | 1497 ft | 100 kts | 268° |
| 2026-04-25 14:51 | 42.75922 | -70.91005 | 1492 ft | 93 kts | 304° |
| 2026-04-25 14:51 | 42.76403 | -70.91496 | 1496 ft | 85 kts | 350° |
| 2026-04-25 14:52 | 42.76975 | -70.91548 | 1497 ft | 80 kts | 6° |
| 2026-04-25 14:52 | 42.77532 | -70.91510 | 1500 ft | 80 kts | 8° |
| 2026-04-25 14:52 | 42.78075 | -70.91455 | 1493 ft | 76 kts | 19° |
| 2026-04-25 14:52 | 42.78338 | -70.91185 | 1499 ft | 71 kts | 57° |
| 2026-04-25 14:53 | 42.78454 | -70.90296 | 1496 ft | 72 kts | 86° |
| 2026-04-25 14:53 | 42.78459 | -70.89630 | 1500 ft | 70 kts | 89° |
| 2026-04-25 14:53 | 42.78461 | -70.88965 | 1497 ft | 70 kts | 87° |
| 2026-04-25 14:53 | 42.78312 | -70.88370 | 1501 ft | 70 kts | 137° |
| 2026-04-25 14:54 | 42.77813 | -70.88173 | 1511 ft | 86 kts | 174° |
| 2026-04-25 14:54 | 42.77220 | -70.88157 | 1494 ft | 83 kts | 180° |
| 2026-04-25 14:54 | 42.76625 | -70.88167 | 1500 ft | 91 kts | 181° |
| 2026-04-25 14:54 | 42.75970 | -70.88174 | 1494 ft | 97 kts | 181° |
| 2026-04-25 14:55 | 42.75358 | -70.88557 | 1486 ft | 99 kts | 229° |
| 2026-04-25 14:55 | 42.75125 | -70.89356 | 1488 ft | 87 kts | 272° |
| 2026-04-25 14:55 | 42.75133 | -70.90174 | 1512 ft | 90 kts | 278° |
| 2026-04-25 14:55 | 42.75180 | -70.91044 | 1491 ft | 90 kts | 280° |
| 2026-04-25 14:56 | 42.75240 | -70.91896 | 1496 ft | 89 kts | 293° |
| 2026-04-25 14:56 | 42.75629 | -70.92441 | 1496 ft | 77 kts | 347° |
| 2026-04-25 14:56 | 42.76145 | -70.92540 | 1498 ft | 74 kts | 4° |
| 2026-04-25 14:56 | 42.76653 | -70.92546 | 1498 ft | 72 kts | 5° |
| 2026-04-25 14:57 | 42.77155 | -70.92543 | 1499 ft | 72 kts | 5° |
| 2026-04-25 14:57 | 42.77658 | -70.92545 | 1502 ft | 73 kts | 4° |
| 2026-04-25 14:57 | 42.78174 | -70.92552 | 1512 ft | 78 kts | 5° |
| 2026-04-25 14:57 | 42.78736 | -70.92558 | 1490 ft | 78 kts | 3° |
| 2026-04-25 14:58 | 42.79178 | -70.92270 | 1495 ft | 71 kts | 56° |
| 2026-04-25 14:58 | 42.79298 | -70.91613 | 1502 ft | 75 kts | 84° |
| 2026-04-25 14:58 | 42.79322 | -70.90901 | 1502 ft | 77 kts | 89° |
| 2026-04-25 14:58 | 42.79330 | -70.90183 | 1496 ft | 75 kts | 89° |
| 2026-04-25 14:59 | 42.79337 | -70.89469 | 1508 ft | 80 kts | 88° |
| 2026-04-25 14:59 | 42.79307 | -70.88670 | 1497 ft | 87 kts | 93° |
| 2026-04-25 14:59 | 42.79298 | -70.87894 | 1487 ft | 76 kts | 86° |
| 2026-04-25 14:59 | 42.79290 | -70.87167 | 1492 ft | 78 kts | 87° |
| 2026-04-25 15:00 | 42.79282 | -70.86450 | 1493 ft | 75 kts | 87° |
| 2026-04-25 15:00 | 42.79265 | -70.85738 | 1493 ft | 75 kts | 89° |
| 2026-04-25 15:00 | 42.79257 | -70.85014 | 1495 ft | 78 kts | 88° |
| 2026-04-25 15:00 | 42.79264 | -70.84243 | 1482 ft | 81 kts | 86° |
| 2026-04-25 15:01 | 42.79269 | -70.83484 | 1489 ft | 80 kts | 89° |
| 2026-04-25 15:01 | 42.79277 | -70.82711 | 1488 ft | 83 kts | 87° |
| 2026-04-25 15:01 | 42.79273 | -70.81936 | 1486 ft | 81 kts | 88° |
| 2026-04-25 15:01 | 42.79272 | -70.81163 | 1487 ft | 83 kts | 89° |
| 2026-04-25 15:02 | 42.78961 | -70.80547 | 1488 ft | 89 kts | 152° |
| 2026-04-25 15:02 | 42.78341 | -70.80355 | 1488 ft | 91 kts | 170° |
| 2026-04-25 15:02 | 42.77701 | -70.80287 | 1491 ft | 94 kts | 175° |
| 2026-04-25 15:02 | 42.77036 | -70.80225 | 1489 ft | 96 kts | 175° |
| 2026-04-25 15:03 | 42.76367 | -70.80155 | 1491 ft | 98 kts | 179° |
| 2026-04-25 15:03 | 42.75677 | -70.80186 | 1485 ft | 99 kts | 181° |
| 2026-04-25 15:03 | 42.75019 | -70.80187 | 1484 ft | 92 kts | 179° |
| 2026-04-25 15:03 | 42.74404 | -70.80149 | 1485 ft | 87 kts | 172° |
| 2026-04-25 15:04 | 42.73788 | -70.80074 | 1495 ft | 93 kts | 173° |
| 2026-04-25 15:04 | 42.73149 | -70.80002 | 1486 ft | 91 kts | 173° |
| 2026-04-25 15:04 | 42.72521 | -70.79929 | 1489 ft | 90 kts | 173° |
| 2026-04-25 15:04 | 42.71901 | -70.79865 | 1490 ft | 89 kts | 176° |
| 2026-04-25 15:05 | 42.71252 | -70.79847 | 1502 ft | 103 kts | 176° |
| 2026-04-25 15:05 | 42.70492 | -70.79825 | 1483 ft | 112 kts | 176° |
| 2026-04-25 15:05 | 42.69701 | -70.79797 | 1488 ft | 114 kts | 177° |
| 2026-04-25 15:06 | 42.68052 | -70.79749 | 1485 ft | 125 kts | 176° |
| 2026-04-25 15:06 | 42.67186 | -70.79729 | 1485 ft | 124 kts | 177° |
| 2026-04-25 15:06 | 42.66338 | -70.79709 | 1492 ft | 121 kts | 178° |
| 2026-04-25 15:06 | 42.65476 | -70.79696 | 1540 ft | 126 kts | 179° |
| 2026-04-25 15:07 | 42.64600 | -70.79760 | 1492 ft | 122 kts | 183° |
| 2026-04-25 15:07 | 42.63766 | -70.79916 | 1495 ft | 121 kts | 190° |
| 2026-04-25 15:07 | 42.62958 | -70.80189 | 1493 ft | 119 kts | 195° |
| 2026-04-25 15:07 | 42.62146 | -70.80494 | 1498 ft | 124 kts | 195° |
| 2026-04-25 15:08 | 42.61316 | -70.80818 | 1492 ft | 124 kts | 195° |
| 2026-04-25 15:08 | 42.60485 | -70.81142 | 1492 ft | 124 kts | 194° |
| 2026-04-25 15:08 | 42.59658 | -70.81444 | 1490 ft | 122 kts | 194° |
| 2026-04-25 15:08 | 42.58859 | -70.81780 | 1496 ft | 120 kts | 202° |
| 2026-04-25 15:09 | 42.58123 | -70.82335 | 1492 ft | 121 kts | 219° |
| 2026-04-25 15:09 | 42.57616 | -70.83213 | 1494 ft | 118 kts | 244° |
| 2026-04-25 15:09 | 42.57229 | -70.85331 | 1493 ft | 116 kts | 272° |
| 2026-04-25 15:10 | 42.57266 | -70.86433 | 1491 ft | 117 kts | 279° |
| 2026-04-25 15:10 | 42.57344 | -70.87532 | 1494 ft | 119 kts | 273° |
| 2026-04-25 15:10 | 42.57009 | -70.89388 | 1491 ft | 123 kts | 250° |
| 2026-04-25 15:11 | 42.56655 | -70.90428 | 1486 ft | 120 kts | 245° |
| 2026-04-25 15:11 | 42.56122 | -70.91734 | 1496 ft | 122 kts | 241° |
| 2026-04-25 15:11 | 42.55644 | -70.92699 | 1493 ft | 124 kts | 236° |
| 2026-04-25 15:12 | 42.54758 | -70.94244 | 1495 ft | 126 kts | 233° |
| 2026-04-25 15:12 | 42.54209 | -70.95172 | 1493 ft | 126 kts | 232° |
| 2026-04-25 15:12 | 42.53683 | -70.96067 | 1487 ft | 119 kts | 233° |
| 2026-04-25 15:12 | 42.53337 | -70.96658 | 1493 ft | 118 kts | 233° |
| 2026-04-25 15:13 | 42.52669 | -70.97808 | 1497 ft | 118 kts | 234° |
| 2026-04-25 15:13 | 42.51796 | -70.99804 | 1498 ft | 126 kts | 255° |
| 2026-04-25 15:13 | 42.51613 | -71.00975 | 1493 ft | 128 kts | 263° |
| 2026-04-25 15:14 | 42.51492 | -71.02156 | 1488 ft | 125 kts | 265° |
| 2026-04-25 15:14 | 42.51471 | -71.03312 | 1497 ft | 123 kts | 282° |
| 2026-04-25 15:14 | 42.51722 | -71.04421 | 1493 ft | 123 kts | 295° |
| 2026-04-25 15:14 | 42.52047 | -71.05503 | 1495 ft | 125 kts | 295° |
| 2026-04-25 15:15 | 42.52368 | -71.06573 | 1492 ft | 121 kts | 289° |
| 2026-04-25 15:15 | 42.52403 | -71.07709 | 1495 ft | 124 kts | 256° |
| 2026-04-25 15:15 | 42.51888 | -71.08656 | 1499 ft | 129 kts | 219° |
| 2026-04-25 15:15 | 42.51124 | -71.09334 | 1496 ft | 132 kts | 215° |
| 2026-04-25 15:16 | 42.50520 | -71.10238 | 1490 ft | 128 kts | 241° |
| 2026-04-25 15:16 | 42.50191 | -71.11346 | 1492 ft | 127 kts | 245° |
| 2026-04-25 15:16 | 42.48600 | -71.11984 | 1349 ft | 133 kts | 166° |
| 2026-04-25 15:17 | 42.46951 | -71.10936 | 1199 ft | 127 kts | 152° |
| 2026-04-25 15:17 | 42.46116 | -71.10617 | 1192 ft | 124 kts | 170° |
| 2026-04-25 15:17 | 42.45264 | -71.10562 | 1195 ft | 122 kts | 177° |
| 2026-04-25 15:18 | 42.44417 | -71.10493 | 1200 ft | 125 kts | 172° |
| 2026-04-25 15:18 | 42.42730 | -71.10410 | 1200 ft | 118 kts | 178° |
| 2026-04-25 15:18 | 42.41902 | -71.10429 | 1189 ft | 120 kts | 178° |
| 2026-04-25 15:19 | 42.41057 | -71.10276 | 1060 ft | 125 kts | 162° |
| 2026-04-25 15:19 | 42.40513 | -71.10003 | 999 ft | 126 kts | 154° |
| 2026-04-25 15:19 | 42.39572 | -71.09144 | 987 ft | 118 kts | 136° |
| 2026-04-25 15:19 | 42.38944 | -71.08434 | 983 ft | 118 kts | 140° |
| 2026-04-25 15:20 | 42.38205 | -71.08003 | 985 ft | 112 kts | 161° |
| 2026-04-25 15:20 | 42.37452 | -71.07775 | 980 ft | 109 kts | 169° |
| 2026-04-25 15:20 | 42.36703 | -71.07726 | 980 ft | 107 kts | 184° |
| 2026-04-25 15:20 | 42.35990 | -71.07964 | 972 ft | 103 kts | 207° |
| 2026-04-25 15:21 | 42.35516 | -71.08639 | 980 ft | 98 kts | 241° |
| 2026-04-25 15:21 | 42.35257 | -71.09469 | 979 ft | 95 kts | 253° |
| 2026-04-25 15:21 | 42.34918 | -71.10213 | 974 ft | 96 kts | 215° |
| 2026-04-25 15:21 | 42.34286 | -71.10235 | 981 ft | 95 kts | 148° |
| 2026-04-25 15:22 | 42.33920 | -71.09569 | 978 ft | 88 kts | 104° |
| 2026-04-25 15:22 | 42.33895 | -71.08748 | 981 ft | 89 kts | 82° |
| 2026-04-25 15:22 | 42.34044 | -71.07929 | 974 ft | 89 kts | 65° |
| 2026-04-25 15:22 | 42.34409 | -71.07270 | 977 ft | 88 kts | 41° |
| 2026-04-25 15:23 | 42.34878 | -71.06817 | 980 ft | 78 kts | 38° |
| 2026-04-25 15:23 | 42.35334 | -71.06450 | 980 ft | 76 kts | 30° |
| 2026-04-25 15:23 | 42.35817 | -71.06618 | 977 ft | 79 kts | 315° |
| 2026-04-25 15:23 | 42.35878 | -71.07355 | 984 ft | 84 kts | 259° |
| 2026-04-25 15:24 | 42.35599 | -71.08048 | 980 ft | 85 kts | 239° |
| 2026-04-25 15:24 | 42.35293 | -71.08734 | 983 ft | 86 kts | 243° |
| 2026-04-25 15:24 | 42.34998 | -71.09494 | 980 ft | 97 kts | 248° |
| 2026-04-25 15:24 | 42.34899 | -71.10090 | 982 ft | 101 kts | 267° |
| 2026-04-25 15:25 | 42.35024 | -71.11369 | 981 ft | 105 kts | 298° |
| 2026-04-25 15:25 | 42.35397 | -71.12236 | 980 ft | 108 kts | 302° |
| 2026-04-25 15:25 | 42.35633 | -71.13212 | 986 ft | 111 kts | 283° |
| 2026-04-25 15:25 | 42.35705 | -71.14253 | 985 ft | 111 kts | 276° |
| 2026-04-25 15:26 | 42.35735 | -71.15285 | 989 ft | 109 kts | 274° |
| 2026-04-25 15:26 | 42.35717 | -71.16323 | 984 ft | 111 kts | 270° |
| 2026-04-25 15:26 | 42.35699 | -71.17360 | 986 ft | 110 kts | 272° |
| 2026-04-25 15:26 | 42.35827 | -71.18347 | 990 ft | 107 kts | 302° |
| 2026-04-25 15:27 | 42.36276 | -71.19134 | 1042 ft | 107 kts | 315° |
| 2026-04-25 15:27 | 42.36912 | -71.19816 | 1004 ft | 124 kts | 329° |
| 2026-04-25 15:27 | 42.38380 | -71.21141 | 996 ft | 124 kts | 324° |
| 2026-04-25 15:28 | 42.39015 | -71.21902 | 997 ft | 120 kts | 320° |
| 2026-04-25 15:28 | 42.39677 | -71.22559 | 1001 ft | 117 kts | 330° |
| 2026-04-25 15:28 | 42.40365 | -71.23124 | 999 ft | 115 kts | 332° |
| 2026-04-25 15:28 | 42.41041 | -71.23683 | 1008 ft | 115 kts | 332° |
| 2026-04-25 15:29 | 42.41715 | -71.24277 | 1001 ft | 115 kts | 329° |
| 2026-04-25 15:29 | 42.42348 | -71.24936 | 995 ft | 114 kts | 323° |
| 2026-04-25 15:29 | 42.42963 | -71.25594 | 975 ft | 112 kts | 322° |
| 2026-04-25 15:29 | 42.43420 | -71.26424 | 919 ft | 109 kts | 304° |
| 2026-04-25 15:30 | 42.43810 | -71.27268 | 898 ft | 104 kts | 310° |
| 2026-04-25 15:30 | 42.44321 | -71.27891 | 870 ft | 93 kts | 335° |
| 2026-04-25 15:30 | 42.44860 | -71.28239 | 799 ft | 82 kts | 348° |
| 2026-04-25 15:30 | 42.45377 | -71.28507 | 702 ft | 71 kts | 347° |
| 2026-04-25 15:31 | 42.45792 | -71.28726 | 522 ft | 62 kts | 352° |
| 2026-04-25 15:31 | 42.46162 | -71.28894 | 283 ft | 46 kts | 350° |
| 2026-04-25 15:31 | 42.46322 | -71.28972 | 175 ft | 11 kts | 339° |
| 2026-04-25 15:31 | 42.46365 | -71.29013 | 145 ft | 4 kts | 275° |
| 2026-04-25 15:32 | 42.46371 | -71.29041 | 141 ft | 4 kts | 275° |
| 2026-04-25 15:32 | 42.46368 | -71.29080 | 138 ft | 4 kts | 275° |
| 2026-04-25 15:32 | 42.46368 | -71.29093 | 133 ft | 1 kts | 282° |
| 2026-04-25 15:33 | 42.46370 | -71.29094 | 132 ft | 0 kts | 277° |